EGHE - Scilly, Saint Mary's
Distance from station: E 5mi, 14km
Updated: 07/21/2018 6:20am
Mostly Cloudy
Mostly Cloudy
 Wind from N
Wind: N 12 mph , 19 km/h
Temperature: 68°F , 20°C
Dew Point: 63°F , 17°C
Humidity: 83%
Barometer: 29.97 inHg , 1015 hPa
Clouds: Mostly Cloudy
Visibility: 6 miles , 10 km
Cloud details: Few Clouds 900 ft
Mostly Cloudy 1300 ft
2018/07/21 13:20 EGHE 211320Z 01010KT 9999 FEW009 BKN013 20/17 Q1015